sensor_id;sensor_type;location;lat;lon;timestamp;temperature;humidity
26212;DHT22;13951;49.516;6.094;2023-09-07T00:00:28;18.20;99.90
26212;DHT22;13951;49.516;6.094;2023-09-07T00:03:02;18.20;99.90
26212;DHT22;13951;49.516;6.094;2023-09-07T00:05:37;18.20;99.90
26212;DHT22;13951;49.516;6.094;2023-09-07T00:08:14;18.20;99.90
26212;DHT22;13951;49.516;6.094;2023-09-07T00:10:48;18.10;99.90
26212;DHT22;13951;49.516;6.094;2023-09-07T00:13:21;18.10;99.90
26212;DHT22;13951;49.516;6.094;2023-09-07T00:16:02;18.10;99.90
26212;DHT22;13951;49.516;6.094;2023-09-07T00:18:39;18.10;99.90
26212;DHT22;13951;49.516;6.094;2023-09-07T00:21:15;18.10;99.90
26212;DHT22;13951;49.516;6.094;2023-09-07T00:23:50;18.10;99.90
26212;DHT22;13951;49.516;6.094;2023-09-07T00:26:24;18.10;99.90
26212;DHT22;13951;49.516;6.094;2023-09-07T00:28:58;18.00;99.90
26212;DHT22;13951;49.516;6.094;2023-09-07T00:31:34;18.00;99.90
26212;DHT22;13951;49.516;6.094;2023-09-07T00:34:08;18.00;99.90
26212;DHT22;13951;49.516;6.094;2023-09-07T00:36:43;17.90;99.90
26212;DHT22;13951;49.516;6.094;2023-09-07T00:39:16;17.90;99.90
26212;DHT22;13951;49.516;6.094;2023-09-07T00:41:51;17.90;99.90
26212;DHT22;13951;49.516;6.094;2023-09-07T00:44:36;17.90;99.90
26212;DHT22;13951;49.516;6.094;2023-09-07T00:47:20;17.90;99.90
26212;DHT22;13951;49.516;6.094;2023-09-07T00:49:56;17.90;99.90
26212;DHT22;13951;49.516;6.094;2023-09-07T00:52:36;17.80;99.90
26212;DHT22;13951;49.516;6.094;2023-09-07T00:55:22;17.70;99.90
26212;DHT22;13951;49.516;6.094;2023-09-07T00:58:03;17.60;99.90
26212;DHT22;13951;49.516;6.094;2023-09-07T01:00:39;17.60;99.90
26212;DHT22;13951;49.516;6.094;2023-09-07T01:03:15;17.50;99.90
26212;DHT22;13951;49.516;6.094;2023-09-07T01:06:15;17.50;99.90
26212;DHT22;13951;49.516;6.094;2023-09-07T01:08:51;17.50;99.90
26212;DHT22;13951;49.516;6.094;2023-09-07T01:11:35;17.50;99.90
26212;DHT22;13951;49.516;6.094;2023-09-07T01:14:12;17.50;99.90
26212;DHT22;13951;49.516;6.094;2023-09-07T01:16:51;17.40;99.90
26212;DHT22;13951;49.516;6.094;2023-09-07T01:19:29;17.40;99.90
26212;DHT22;13951;49.516;6.094;2023-09-07T01:22:02;17.40;99.90
26212;DHT22;13951;49.516;6.094;2023-09-07T01:24:37;17.40;99.90
26212;DHT22;13951;49.516;6.094;2023-09-07T01:27:13;17.40;99.90
26212;DHT22;13951;49.516;6.094;2023-09-07T01:29:52;17.40;99.90
26212;DHT22;13951;49.516;6.094;2023-09-07T01:32:27;17.40;99.90
26212;DHT22;13951;49.516;6.094;2023-09-07T01:35:04;17.40;99.90
26212;DHT22;13951;49.516;6.094;2023-09-07T01:37:39;17.40;99.90
26212;DHT22;13951;49.516;6.094;2023-09-07T01:40:13;17.40;99.90
26212;DHT22;13951;49.516;6.094;2023-09-07T01:42:46;17.30;99.90
26212;DHT22;13951;49.516;6.094;2023-09-07T01:45:20;17.30;99.90
26212;DHT22;13951;49.516;6.094;2023-09-07T01:47:55;17.30;99.90
26212;DHT22;13951;49.516;6.094;2023-09-07T01:50:32;17.30;99.90
26212;DHT22;13951;49.516;6.094;2023-09-07T01:53:09;17.30;99.90
26212;DHT22;13951;49.516;6.094;2023-09-07T01:55:42;17.30;99.90
26212;DHT22;13951;49.516;6.094;2023-09-07T01:58:18;17.20;99.90
26212;DHT22;13951;49.516;6.094;2023-09-07T02:00:56;17.20;99.90
26212;DHT22;13951;49.516;6.094;2023-09-07T02:03:32;17.10;99.90
26212;DHT22;13951;49.516;6.094;2023-09-07T02:06:08;17.10;99.90
26212;DHT22;13951;49.516;6.094;2023-09-07T02:08:42;17.10;99.90
26212;DHT22;13951;49.516;6.094;2023-09-07T02:11:18;17.00;99.90
26212;DHT22;13951;49.516;6.094;2023-09-07T02:13:51;17.00;99.90
26212;DHT22;13951;49.516;6.094;2023-09-07T02:16:24;17.00;99.90
26212;DHT22;13951;49.516;6.094;2023-09-07T02:19:02;17.00;99.90
26212;DHT22;13951;49.516;6.094;2023-09-07T02:21:38;17.00;99.90
26212;DHT22;13951;49.516;6.094;2023-09-07T02:24:12;17.00;99.90
26212;DHT22;13951;49.516;6.094;2023-09-07T02:26:47;17.00;99.90
26212;DHT22;13951;49.516;6.094;2023-09-07T02:29:22;17.00;99.90
26212;DHT22;13951;49.516;6.094;2023-09-07T02:31:59;16.90;99.90
26212;DHT22;13951;49.516;6.094;2023-09-07T02:34:32;16.90;99.90
26212;DHT22;13951;49.516;6.094;2023-09-07T02:37:09;16.80;99.90
26212;DHT22;13951;49.516;6.094;2023-09-07T02:39:42;16.80;99.90
26212;DHT22;13951;49.516;6.094;2023-09-07T02:42:16;16.80;99.90
26212;DHT22;13951;49.516;6.094;2023-09-07T02:44:49;16.70;99.90
26212;DHT22;13951;49.516;6.094;2023-09-07T02:47:24;16.70;99.90
26212;DHT22;13951;49.516;6.094;2023-09-07T02:49:57;16.70;99.90
26212;DHT22;13951;49.516;6.094;2023-09-07T02:52:31;16.70;99.90
26212;DHT22;13951;49.516;6.094;2023-09-07T02:55:07;16.70;99.90
26212;DHT22;13951;49.516;6.094;2023-09-07T02:57:41;16.60;99.90
26212;DHT22;13951;49.516;6.094;2023-09-07T03:00:15;16.60;99.90
26212;DHT22;13951;49.516;6.094;2023-09-07T03:02:51;16.50;99.90
26212;DHT22;13951;49.516;6.094;2023-09-07T03:05:29;16.50;99.90
26212;DHT22;13951;49.516;6.094;2023-09-07T03:08:03;16.50;99.90
26212;DHT22;13951;49.516;6.094;2023-09-07T03:10:40;16.40;99.90
26212;DHT22;13951;49.516;6.094;2023-09-07T03:13:17;16.40;99.90
26212;DHT22;13951;49.516;6.094;2023-09-07T03:15:53;16.40;99.90
26212;DHT22;13951;49.516;6.094;2023-09-07T03:18:28;16.40;99.90
26212;DHT22;13951;49.516;6.094;2023-09-07T03:21:02;16.40;99.90
26212;DHT22;13951;49.516;6.094;2023-09-07T03:23:37;16.40;99.90
26212;DHT22;13951;49.516;6.094;2023-09-07T03:26:13;16.40;99.90
26212;DHT22;13951;49.516;6.094;2023-09-07T03:28:46;16.40;99.90
26212;DHT22;13951;49.516;6.094;2023-09-07T03:31:19;16.40;99.90
26212;DHT22;13951;49.516;6.094;2023-09-07T03:33:55;16.30;99.90
26212;DHT22;13951;49.516;6.094;2023-09-07T03:36:28;16.30;99.90
26212;DHT22;13951;49.516;6.094;2023-09-07T03:39:02;16.20;99.90
26212;DHT22;13951;49.516;6.094;2023-09-07T03:41:36;16.10;99.90
26212;DHT22;13951;49.516;6.094;2023-09-07T03:44:11;16.10;99.90
26212;DHT22;13951;49.516;6.094;2023-09-07T03:46:45;16.00;99.90
26212;DHT22;13951;49.516;6.094;2023-09-07T03:49:19;16.00;99.90
26212;DHT22;13951;49.516;6.094;2023-09-07T03:51:55;15.90;99.90
26212;DHT22;13951;49.516;6.094;2023-09-07T03:54:38;15.90;99.90
26212;DHT22;13951;49.516;6.094;2023-09-07T04:03:21;15.90;99.90
26212;DHT22;13951;49.516;6.094;2023-09-07T04:05:58;15.90;99.90
26212;DHT22;13951;49.516;6.094;2023-09-07T07:45:44;22.50;99.90
26212;DHT22;13951;49.516;6.094;2023-09-07T07:48:19;22.70;99.90
26212;DHT22;13951;49.516;6.094;2023-09-07T07:51:16;22.70;99.90
26212;DHT22;13951;49.516;6.094;2023-09-07T08:02:17;23.30;99.90
26212;DHT22;13951;49.516;6.094;2023-09-07T08:05:54;23.30;99.90
26212;DHT22;13951;49.516;6.094;2023-09-07T08:08:28;23.50;99.90
26212;DHT22;13951;49.516;6.094;2023-09-07T08:11:05;23.60;99.90
26212;DHT22;13951;49.516;6.094;2023-09-07T08:13:40;23.70;99.90
26212;DHT22;13951;49.516;6.094;2023-09-07T08:16:15;23.70;99.90
26212;DHT22;13951;49.516;6.094;2023-09-07T08:18:52;23.90;99.90
26212;DHT22;13951;49.516;6.094;2023-09-07T08:21:26;24.00;99.90
26212;DHT22;13951;49.516;6.094;2023-09-07T08:24:00;24.10;99.90
26212;DHT22;13951;49.516;6.094;2023-09-07T08:26:35;24.20;99.90
26212;DHT22;13951;49.516;6.094;2023-09-07T08:29:12;24.10;99.90
26212;DHT22;13951;49.516;6.094;2023-09-07T08:31:46;24.10;99.90
26212;DHT22;13951;49.516;6.094;2023-09-07T08:34:21;24.10;99.90
26212;DHT22;13951;49.516;6.094;2023-09-07T08:36:57;24.10;99.90
26212;DHT22;13951;49.516;6.094;2023-09-07T08:39:32;24.20;99.90
26212;DHT22;13951;49.516;6.094;2023-09-07T08:42:07;24.10;99.90
26212;DHT22;13951;49.516;6.094;2023-09-07T08:44:42;24.00;99.90
26212;DHT22;13951;49.516;6.094;2023-09-07T08:47:20;24.00;99.90
26212;DHT22;13951;49.516;6.094;2023-09-07T08:49:54;24.20;99.90
26212;DHT22;13951;49.516;6.094;2023-09-07T08:52:29;24.30;99.90
26212;DHT22;13951;49.516;6.094;2023-09-07T08:55:03;24.60;99.90
26212;DHT22;13951;49.516;6.094;2023-09-07T08:57:37;24.70;99.90
26212;DHT22;13951;49.516;6.094;2023-09-07T09:00:12;24.70;99.90
26212;DHT22;13951;49.516;6.094;2023-09-07T09:02:50;24.60;99.90
26212;DHT22;13951;49.516;6.094;2023-09-07T09:05:30;24.70;99.90
26212;DHT22;13951;49.516;6.094;2023-09-07T09:08:04;25.00;99.90
26212;DHT22;13951;49.516;6.094;2023-09-07T09:10:41;25.20;99.90
26212;DHT22;13951;49.516;6.094;2023-09-07T09:13:15;25.40;99.90
26212;DHT22;13951;49.516;6.094;2023-09-07T09:15:49;25.50;99.90
26212;DHT22;13951;49.516;6.094;2023-09-07T09:18:23;25.80;99.90
26212;DHT22;13951;49.516;6.094;2023-09-07T09:20:57;26.10;99.90
26212;DHT22;13951;49.516;6.094;2023-09-07T09:24:17;26.10;99.90
26212;DHT22;13951;49.516;6.094;2023-09-07T09:27:03;26.20;99.90
26212;DHT22;13951;49.516;6.094;2023-09-07T09:29:37;26.20;99.90
26212;DHT22;13951;49.516;6.094;2023-09-07T09:32:14;26.20;99.90
26212;DHT22;13951;49.516;6.094;2023-09-07T09:34:48;26.20;99.90
26212;DHT22;13951;49.516;6.094;2023-09-07T09:37:22;26.20;99.90
26212;DHT22;13951;49.516;6.094;2023-09-07T09:39:56;26.40;99.90
26212;DHT22;13951;49.516;6.094;2023-09-07T09:42:30;26.60;99.90
26212;DHT22;13951;49.516;6.094;2023-09-07T09:45:04;26.70;99.90
26212;DHT22;13951;49.516;6.094;2023-09-07T09:47:40;26.90;99.90
26212;DHT22;13951;49.516;6.094;2023-09-07T09:50:13;27.10;99.90
26212;DHT22;13951;49.516;6.094;2023-09-07T09:52:47;27.30;99.90
26212;DHT22;13951;49.516;6.094;2023-09-07T09:55:21;27.00;99.90
26212;DHT22;13951;49.516;6.094;2023-09-07T09:57:55;26.90;99.90
26212;DHT22;13951;49.516;6.094;2023-09-07T10:00:31;26.90;99.90
26212;DHT22;13951;49.516;6.094;2023-09-07T10:03:14;26.80;99.90
26212;DHT22;13951;49.516;6.094;2023-09-07T10:05:49;26.70;99.90
26212;DHT22;13951;49.516;6.094;2023-09-07T10:08:22;26.80;99.90
26212;DHT22;13951;49.516;6.094;2023-09-07T10:10:56;27.00;99.90
26212;DHT22;13951;49.516;6.094;2023-09-07T10:13:31;27.20;99.90
26212;DHT22;13951;49.516;6.094;2023-09-07T10:16:08;27.20;99.90
26212;DHT22;13951;49.516;6.094;2023-09-07T10:18:42;27.20;99.90
26212;DHT22;13951;49.516;6.094;2023-09-07T10:21:17;27.20;99.90
26212;DHT22;13951;49.516;6.094;2023-09-07T10:23:51;27.20;99.90
26212;DHT22;13951;49.516;6.094;2023-09-07T10:26:25;27.30;99.90
26212;DHT22;13951;49.516;6.094;2023-09-07T10:28:59;27.30;99.90
26212;DHT22;13951;49.516;6.094;2023-09-07T10:31:33;27.50;99.90
26212;DHT22;13951;49.516;6.094;2023-09-07T10:34:35;27.70;99.90
26212;DHT22;13951;49.516;6.094;2023-09-07T10:37:18;27.90;99.90
26212;DHT22;13951;49.516;6.094;2023-09-07T10:39:52;27.90;99.90
26212;DHT22;13951;49.516;6.094;2023-09-07T10:42:26;28.10;99.90
26212;DHT22;13951;49.516;6.094;2023-09-07T10:45:11;28.40;99.90
26212;DHT22;13951;49.516;6.094;2023-09-07T10:47:48;28.50;99.90
26212;DHT22;13951;49.516;6.094;2023-09-07T10:50:21;28.50;99.90
26212;DHT22;13951;49.516;6.094;2023-09-07T10:52:54;28.80;99.90
26212;DHT22;13951;49.516;6.094;2023-09-07T10:55:28;28.90;99.90
26212;DHT22;13951;49.516;6.094;2023-09-07T10:58:04;28.90;99.90
26212;DHT22;13951;49.516;6.094;2023-09-07T11:00:37;29.10;99.90
26212;DHT22;13951;49.516;6.094;2023-09-07T11:03:10;29.10;99.90
26212;DHT22;13951;49.516;6.094;2023-09-07T11:05:45;29.30;99.90
26212;DHT22;13951;49.516;6.094;2023-09-07T11:08:18;29.30;99.90
26212;DHT22;13951;49.516;6.094;2023-09-07T11:10:52;29.20;99.90
26212;DHT22;13951;49.516;6.094;2023-09-07T11:13:29;29.10;99.90
26212;DHT22;13951;49.516;6.094;2023-09-07T11:16:08;29.20;99.90
26212;DHT22;13951;49.516;6.094;2023-09-07T11:18:41;29.40;99.90
26212;DHT22;13951;49.516;6.094;2023-09-07T11:21:15;29.40;99.90
26212;DHT22;13951;49.516;6.094;2023-09-07T11:23:50;29.30;99.90
26212;DHT22;13951;49.516;6.094;2023-09-07T11:26:23;29.30;99.90
26212;DHT22;13951;49.516;6.094;2023-09-07T11:28:57;29.20;99.90
26212;DHT22;13951;49.516;6.094;2023-09-07T11:31:30;28.90;99.90
26212;DHT22;13951;49.516;6.094;2023-09-07T11:34:08;29.00;99.90
26212;DHT22;13951;49.516;6.094;2023-09-07T11:36:43;29.00;99.90
26212;DHT22;13951;49.516;6.094;2023-09-07T11:39:16;29.20;99.90
26212;DHT22;13951;49.516;6.094;2023-09-07T11:41:49;29.30;99.90
26212;DHT22;13951;49.516;6.094;2023-09-07T11:44:23;29.50;99.90
26212;DHT22;13951;49.516;6.094;2023-09-07T11:46:56;29.60;99.90
26212;DHT22;13951;49.516;6.094;2023-09-07T11:49:32;29.60;99.90
26212;DHT22;13951;49.516;6.094;2023-09-07T11:52:06;29.70;99.90
26212;DHT22;13951;49.516;6.094;2023-09-07T11:54:39;29.70;99.90
26212;DHT22;13951;49.516;6.094;2023-09-07T11:57:12;29.90;99.90
26212;DHT22;13951;49.516;6.094;2023-09-07T11:59:45;29.90;99.90
26212;DHT22;13951;49.516;6.094;2023-09-07T12:02:31;29.90;99.90
26212;DHT22;13951;49.516;6.094;2023-09-07T12:05:05;30.00;99.90
26212;DHT22;13951;49.516;6.094;2023-09-07T12:07:41;30.10;99.90
26212;DHT22;13951;49.516;6.094;2023-09-07T12:10:15;30.10;99.90
26212;DHT22;13951;49.516;6.094;2023-09-07T12:12:49;30.00;99.90
26212;DHT22;13951;49.516;6.094;2023-09-07T12:15:22;30.10;99.90
26212;DHT22;13951;49.516;6.094;2023-09-07T12:17:55;30.30;99.90
26212;DHT22;13951;49.516;6.094;2023-09-07T12:20:28;30.30;99.30
26212;DHT22;13951;49.516;6.094;2023-09-07T12:23:02;30.50;99.90
26212;DHT22;13951;49.516;6.094;2023-09-07T12:25:35;30.50;99.90
26212;DHT22;13951;49.516;6.094;2023-09-07T12:28:09;30.50;99.90
26212;DHT22;13951;49.516;6.094;2023-09-07T12:30:42;30.60;98.70
26212;DHT22;13951;49.516;6.094;2023-09-07T12:33:17;30.50;98.00
26212;DHT22;13951;49.516;6.094;2023-09-07T12:35:51;30.40;97.40
26212;DHT22;13951;49.516;6.094;2023-09-07T12:38:24;30.30;98.10
26212;DHT22;13951;49.516;6.094;2023-09-07T12:41:01;30.30;98.70
26212;DHT22;13951;49.516;6.094;2023-09-07T12:43:35;30.30;99.70
26212;DHT22;13951;49.516;6.094;2023-09-07T12:46:09;30.30;98.80
26212;DHT22;13951;49.516;6.094;2023-09-07T12:48:42;30.40;97.70
26212;DHT22;13951;49.516;6.094;2023-09-07T12:51:16;30.20;97.60
26212;DHT22;13951;49.516;6.094;2023-09-07T12:53:49;30.10;97.70
26212;DHT22;13951;49.516;6.094;2023-09-07T12:56:22;29.90;99.10
26212;DHT22;13951;49.516;6.094;2023-09-07T12:58:55;29.80;98.60
26212;DHT22;13951;49.516;6.094;2023-09-07T13:01:32;29.70;99.30
26212;DHT22;13951;49.516;6.094;2023-09-07T13:04:06;29.50;99.90
26212;DHT22;13951;49.516;6.094;2023-09-07T13:06:39;29.30;99.90
26212;DHT22;13951;49.516;6.094;2023-09-07T13:09:12;29.10;99.90
26212;DHT22;13951;49.516;6.094;2023-09-07T13:11:46;29.10;99.80
26212;DHT22;13951;49.516;6.094;2023-09-07T13:14:19;29.00;99.90
26212;DHT22;13951;49.516;6.094;2023-09-07T13:16:52;28.80;99.90
26212;DHT22;13951;49.516;6.094;2023-09-07T13:19:28;28.70;99.90
26212;DHT22;13951;49.516;6.094;2023-09-07T13:22:02;28.60;99.90
26212;DHT22;13951;49.516;6.094;2023-09-07T13:24:36;28.40;99.90
26212;DHT22;13951;49.516;6.094;2023-09-07T13:27:09;28.40;99.90
26212;DHT22;13951;49.516;6.094;2023-09-07T13:29:43;28.20;99.90
26212;DHT22;13951;49.516;6.094;2023-09-07T13:32:16;28.20;99.90
26212;DHT22;13951;49.516;6.094;2023-09-07T13:38:27;28.20;99.90
26212;DHT22;13951;49.516;6.094;2023-09-07T13:41:53;28.10;99.90
26212;DHT22;13951;49.516;6.094;2023-09-07T13:46:09;28.00;99.90
26212;DHT22;13951;49.516;6.094;2023-09-07T13:48:43;28.00;99.90
26212;DHT22;13951;49.516;6.094;2023-09-07T13:51:16;27.90;99.90
26212;DHT22;13951;49.516;6.094;2023-09-07T13:53:49;27.90;99.90
26212;DHT22;13951;49.516;6.094;2023-09-07T13:56:27;27.80;99.90
26212;DHT22;13951;49.516;6.094;2023-09-07T13:59:03;27.80;99.90
26212;DHT22;13951;49.516;6.094;2023-09-07T14:01:36;27.80;99.90
26212;DHT22;13951;49.516;6.094;2023-09-07T14:04:10;27.70;99.90
26212;DHT22;13951;49.516;6.094;2023-09-07T14:06:43;27.70;99.90
26212;DHT22;13951;49.516;6.094;2023-09-07T14:09:16;27.70;99.90
26212;DHT22;13951;49.516;6.094;2023-09-07T14:11:50;27.80;99.90
26212;DHT22;13951;49.516;6.094;2023-09-07T14:14:23;27.80;99.90
26212;DHT22;13951;49.516;6.094;2023-09-07T14:16:56;27.80;99.90
26212;DHT22;13951;49.516;6.094;2023-09-07T14:19:31;27.80;99.90
26212;DHT22;13951;49.516;6.094;2023-09-07T14:22:04;27.80;99.90
26212;DHT22;13951;49.516;6.094;2023-09-07T14:24:38;27.70;99.90
26212;DHT22;13951;49.516;6.094;2023-09-07T14:27:11;27.70;99.90
26212;DHT22;13951;49.516;6.094;2023-09-07T14:29:44;27.70;99.90
26212;DHT22;13951;49.516;6.094;2023-09-07T14:32:17;27.60;99.90
26212;DHT22;13951;49.516;6.094;2023-09-07T14:34:50;27.60;99.90
26212;DHT22;13951;49.516;6.094;2023-09-07T14:37:23;27.60;99.90
26212;DHT22;13951;49.516;6.094;2023-09-07T14:39:57;27.60;99.90
26212;DHT22;13951;49.516;6.094;2023-09-07T14:42:32;27.60;99.90
26212;DHT22;13951;49.516;6.094;2023-09-07T14:45:05;27.50;99.90
26212;DHT22;13951;49.516;6.094;2023-09-07T14:47:39;27.60;99.90
26212;DHT22;13951;49.516;6.094;2023-09-07T14:50:12;27.60;99.90
26212;DHT22;13951;49.516;6.094;2023-09-07T14:52:45;27.60;99.90
26212;DHT22;13951;49.516;6.094;2023-09-07T14:55:21;27.50;99.90
26212;DHT22;13951;49.516;6.094;2023-09-07T14:57:54;27.50;99.90
26212;DHT22;13951;49.516;6.094;2023-09-07T15:00:27;27.50;99.90
26212;DHT22;13951;49.516;6.094;2023-09-07T15:03:05;27.50;99.90
26212;DHT22;13951;49.516;6.094;2023-09-07T15:05:38;27.40;99.90
26212;DHT22;13951;49.516;6.094;2023-09-07T15:08:11;27.40;99.90
26212;DHT22;13951;49.516;6.094;2023-09-07T15:10:44;27.40;99.90
26212;DHT22;13951;49.516;6.094;2023-09-07T15:13:17;27.40;99.90
26212;DHT22;13951;49.516;6.094;2023-09-07T15:15:52;27.40;99.90
26212;DHT22;13951;49.516;6.094;2023-09-07T15:18:25;27.40;99.90
26212;DHT22;13951;49.516;6.094;2023-09-07T15:20:58;27.40;99.90
26212;DHT22;13951;49.516;6.094;2023-09-07T15:23:31;27.40;99.90
26212;DHT22;13951;49.516;6.094;2023-09-07T15:26:04;27.40;99.90
26212;DHT22;13951;49.516;6.094;2023-09-07T15:28:38;27.40;99.90
26212;DHT22;13951;49.516;6.094;2023-09-07T15:31:12;27.40;99.90
26212;DHT22;13951;49.516;6.094;2023-09-07T15:33:45;27.40;99.90
26212;DHT22;13951;49.516;6.094;2023-09-07T15:36:19;27.40;99.90
26212;DHT22;13951;49.516;6.094;2023-09-07T15:38:52;27.30;99.90
26212;DHT22;13951;49.516;6.094;2023-09-07T15:41:25;27.30;99.90
26212;DHT22;13951;49.516;6.094;2023-09-07T15:43:58;27.30;99.90
26212;DHT22;13951;49.516;6.094;2023-09-07T15:46:32;27.30;99.90
26212;DHT22;13951;49.516;6.094;2023-09-07T15:49:05;27.20;99.90
26212;DHT22;13951;49.516;6.094;2023-09-07T15:51:38;27.20;99.90
26212;DHT22;13951;49.516;6.094;2023-09-07T15:54:12;27.20;99.90
26212;DHT22;13951;49.516;6.094;2023-09-07T15:56:45;27.20;99.90
26212;DHT22;13951;49.516;6.094;2023-09-07T15:59:18;27.10;99.90
26212;DHT22;13951;49.516;6.094;2023-09-07T16:01:51;27.10;99.90
26212;DHT22;13951;49.516;6.094;2023-09-07T16:04:24;27.10;99.90
26212;DHT22;13951;49.516;6.094;2023-09-07T16:07:01;27.10;99.90
26212;DHT22;13951;49.516;6.094;2023-09-07T16:09:34;27.10;99.90
26212;DHT22;13951;49.516;6.094;2023-09-07T16:12:07;27.10;99.90
26212;DHT22;13951;49.516;6.094;2023-09-07T16:14:41;27.10;99.90
26212;DHT22;13951;49.516;6.094;2023-09-07T16:17:14;27.00;99.90
26212;DHT22;13951;49.516;6.094;2023-09-07T16:19:48;27.00;99.90
26212;DHT22;13951;49.516;6.094;2023-09-07T16:22:22;27.00;99.90
26212;DHT22;13951;49.516;6.094;2023-09-07T16:24:55;27.00;99.90
26212;DHT22;13951;49.516;6.094;2023-09-07T16:27:28;27.00;99.90
26212;DHT22;13951;49.516;6.094;2023-09-07T16:30:01;27.00;99.90
26212;DHT22;13951;49.516;6.094;2023-09-07T16:32:35;26.90;99.90
26212;DHT22;13951;49.516;6.094;2023-09-07T16:35:10;26.90;99.90
26212;DHT22;13951;49.516;6.094;2023-09-07T16:37:44;26.90;99.90
26212;DHT22;13951;49.516;6.094;2023-09-07T16:40:17;26.90;99.90
26212;DHT22;13951;49.516;6.094;2023-09-07T16:42:52;26.90;99.90
26212;DHT22;13951;49.516;6.094;2023-09-07T16:45:25;26.80;99.90
26212;DHT22;13951;49.516;6.094;2023-09-07T16:47:58;26.80;99.90
26212;DHT22;13951;49.516;6.094;2023-09-07T16:50:31;26.80;99.90
26212;DHT22;13951;49.516;6.094;2023-09-07T16:53:04;26.80;99.90
26212;DHT22;13951;49.516;6.094;2023-09-07T16:55:37;26.80;99.90
26212;DHT22;13951;49.516;6.094;2023-09-07T16:58:10;26.80;99.90
26212;DHT22;13951;49.516;6.094;2023-09-07T17:00:43;26.70;99.90
26212;DHT22;13951;49.516;6.094;2023-09-07T17:03:16;26.70;99.90
26212;DHT22;13951;49.516;6.094;2023-09-07T17:05:50;26.70;99.90
26212;DHT22;13951;49.516;6.094;2023-09-07T17:08:24;26.60;99.90
26212;DHT22;13951;49.516;6.094;2023-09-07T17:10:58;26.60;99.90
26212;DHT22;13951;49.516;6.094;2023-09-07T17:13:32;26.50;99.90
26212;DHT22;13951;49.516;6.094;2023-09-07T17:16:06;26.50;99.90
26212;DHT22;13951;49.516;6.094;2023-09-07T17:18:39;26.40;99.90
26212;DHT22;13951;49.516;6.094;2023-09-07T17:21:14;26.40;99.90
26212;DHT22;13951;49.516;6.094;2023-09-07T17:23:47;26.40;99.90
26212;DHT22;13951;49.516;6.094;2023-09-07T17:26:20;26.40;99.90
26212;DHT22;13951;49.516;6.094;2023-09-07T17:28:53;26.30;99.90
26212;DHT22;13951;49.516;6.094;2023-09-07T17:31:26;26.20;99.90
26212;DHT22;13951;49.516;6.094;2023-09-07T17:33:59;26.20;99.90
26212;DHT22;13951;49.516;6.094;2023-09-07T17:36:33;26.10;99.90
26212;DHT22;13951;49.516;6.094;2023-09-07T17:39:06;26.10;99.90
26212;DHT22;13951;49.516;6.094;2023-09-07T17:41:39;26.00;99.90
26212;DHT22;13951;49.516;6.094;2023-09-07T17:44:12;26.00;99.90
26212;DHT22;13951;49.516;6.094;2023-09-07T17:46:46;26.00;99.90
26212;DHT22;13951;49.516;6.094;2023-09-07T17:49:22;25.90;99.90
26212;DHT22;13951;49.516;6.094;2023-09-07T17:51:55;25.90;99.90
26212;DHT22;13951;49.516;6.094;2023-09-07T17:54:29;25.80;99.90
26212;DHT22;13951;49.516;6.094;2023-09-07T17:57:02;25.80;99.90
26212;DHT22;13951;49.516;6.094;2023-09-07T17:59:36;25.70;99.90
26212;DHT22;13951;49.516;6.094;2023-09-07T18:02:20;25.70;99.90
26212;DHT22;13951;49.516;6.094;2023-09-07T18:04:56;25.60;99.90
26212;DHT22;13951;49.516;6.094;2023-09-07T18:07:29;25.60;99.90
26212;DHT22;13951;49.516;6.094;2023-09-07T18:10:02;25.50;99.90
26212;DHT22;13951;49.516;6.094;2023-09-07T18:12:36;25.50;99.90
26212;DHT22;13951;49.516;6.094;2023-09-07T18:15:09;25.40;99.90
26212;DHT22;13951;49.516;6.094;2023-09-07T18:17:42;25.30;99.90
26212;DHT22;13951;49.516;6.094;2023-09-07T18:20:16;25.20;99.90
26212;DHT22;13951;49.516;6.094;2023-09-07T18:22:55;25.10;99.90
26212;DHT22;13951;49.516;6.094;2023-09-07T18:25:28;25.00;99.90
26212;DHT22;13951;49.516;6.094;2023-09-07T18:28:01;24.90;99.90
26212;DHT22;13951;49.516;6.094;2023-09-07T18:30:34;24.80;99.90
26212;DHT22;13951;49.516;6.094;2023-09-07T18:33:09;24.80;99.90
26212;DHT22;13951;49.516;6.094;2023-09-07T18:35:42;24.70;99.90
26212;DHT22;13951;49.516;6.094;2023-09-07T18:38:16;24.60;99.90
26212;DHT22;13951;49.516;6.094;2023-09-07T18:40:49;24.50;99.90
26212;DHT22;13951;49.516;6.094;2023-09-07T18:43:23;24.40;99.90
26212;DHT22;13951;49.516;6.094;2023-09-07T18:45:56;24.30;99.90
26212;DHT22;13951;49.516;6.094;2023-09-07T18:48:30;24.30;99.90
26212;DHT22;13951;49.516;6.094;2023-09-07T18:51:05;24.20;99.90
26212;DHT22;13951;49.516;6.094;2023-09-07T18:53:39;24.20;99.90
26212;DHT22;13951;49.516;6.094;2023-09-07T18:56:12;24.10;99.90
26212;DHT22;13951;49.516;6.094;2023-09-07T18:58:46;24.00;99.90
26212;DHT22;13951;49.516;6.094;2023-09-07T19:01:19;23.90;99.90
26212;DHT22;13951;49.516;6.094;2023-09-07T19:03:53;23.70;99.90
26212;DHT22;13951;49.516;6.094;2023-09-07T19:06:27;23.60;99.90
26212;DHT22;13951;49.516;6.094;2023-09-07T19:09:00;23.50;99.90
26212;DHT22;13951;49.516;6.094;2023-09-07T19:11:36;23.40;99.90
26212;DHT22;13951;49.516;6.094;2023-09-07T19:14:09;23.40;99.90
26212;DHT22;13951;49.516;6.094;2023-09-07T19:16:42;23.30;99.90
26212;DHT22;13951;49.516;6.094;2023-09-07T19:19:15;23.20;99.90
26212;DHT22;13951;49.516;6.094;2023-09-07T19:21:48;23.10;99.90
26212;DHT22;13951;49.516;6.094;2023-09-07T19:24:21;23.00;99.90
26212;DHT22;13951;49.516;6.094;2023-09-07T19:26:55;23.00;99.90
26212;DHT22;13951;49.516;6.094;2023-09-07T19:29:28;22.90;99.90
26212;DHT22;13951;49.516;6.094;2023-09-07T19:32:02;22.90;99.90
26212;DHT22;13951;49.516;6.094;2023-09-07T19:34:35;22.90;99.90
26212;DHT22;13951;49.516;6.094;2023-09-07T19:37:08;22.80;99.90
26212;DHT22;13951;49.516;6.094;2023-09-07T19:39:41;22.70;99.90
26212;DHT22;13951;49.516;6.094;2023-09-07T19:42:16;22.70;99.90
26212;DHT22;13951;49.516;6.094;2023-09-07T19:44:49;22.60;99.90
26212;DHT22;13951;49.516;6.094;2023-09-07T19:47:22;22.60;99.90
26212;DHT22;13951;49.516;6.094;2023-09-07T19:49:56;22.50;99.90
26212;DHT22;13951;49.516;6.094;2023-09-07T19:52:29;22.50;99.90
26212;DHT22;13951;49.516;6.094;2023-09-07T19:55:02;22.40;99.90
26212;DHT22;13951;49.516;6.094;2023-09-07T19:57:36;22.30;99.90
26212;DHT22;13951;49.516;6.094;2023-09-07T20:00:09;22.30;99.90
26212;DHT22;13951;49.516;6.094;2023-09-07T20:02:43;22.30;99.90
26212;DHT22;13951;49.516;6.094;2023-09-07T20:05:16;22.20;99.90
26212;DHT22;13951;49.516;6.094;2023-09-07T20:07:49;22.20;99.90
26212;DHT22;13951;49.516;6.094;2023-09-07T20:10:23;22.10;99.90
26212;DHT22;13951;49.516;6.094;2023-09-07T20:12:57;22.10;99.90
26212;DHT22;13951;49.516;6.094;2023-09-07T20:15:30;22.10;99.90